Terminal Aerodrome Forecast
Issued by NWS

Home | Current Version | Previous Version | Text Only | Print | Product List | Glossary On
Versions: 1 2 3 4 5 6 7 8 9 10 11 12 13
000
FTUS45 KBYZ 261122
TAFLVM
TAF
KLVM 261122Z 2612/2712 30005KT P6SM SCT120
     FM261500 13010KT P6SM SCT120
     FM262000 32010KT P6SM VCTS SCT070CB BKN100
     FM270300 08008KT P6SM SCT100=

USA.gov is the U.S. government's official web portal to all federal, state and local government web resources and services.